createdAt,value
2022-10-01T00:01:24.410Z,7.57
2022-10-01T00:03:51.561Z,6.70
2022-10-01T00:06:21.510Z,8.23
2022-10-01T00:08:50.247Z,8.18
2022-10-01T00:11:23.601Z,7.75
2022-10-01T00:13:52.695Z,8.60
2022-10-01T00:16:22.974Z,7.15
2022-10-01T00:18:51.498Z,7.75
2022-10-01T00:21:24.006Z,7.93
2022-10-01T00:24:01.906Z,8.52
2022-10-01T00:26:32.729Z,8.07
2022-10-01T00:29:02.403Z,7.63
2022-10-01T00:31:30.186Z,8.02
2022-10-01T00:33:59.320Z,8.65
2022-10-01T00:36:26.966Z,8.30
2022-10-01T00:38:54.248Z,8.10
2022-10-01T00:41:21.643Z,8.82
2022-10-01T00:43:56.317Z,9.15
2022-10-01T00:46:29.410Z,8.43
2022-10-01T00:49:10.133Z,8.57
2022-10-01T00:51:42.274Z,8.38
2022-10-01T00:54:19.443Z,7.85
2022-10-01T00:56:47.497Z,8.25
2022-10-01T00:59:16.705Z,8.80
2022-10-01T01:01:44.932Z,9.40
2022-10-01T01:04:18.353Z,8.95
2022-10-01T01:06:55.776Z,9.05
2022-10-01T01:09:25.743Z,8.88
2022-10-01T01:12:06.617Z,7.90
2022-10-01T01:14:57.857Z,8.45
2022-10-01T01:17:39.927Z,7.43
2022-10-01T01:20:28.929Z,7.10
2022-10-01T01:23:15.553Z,6.88
2022-10-01T01:25:51.575Z,6.50
2022-10-01T01:28:25.707Z,7.20
2022-10-01T01:30:57.961Z,6.90
2022-10-01T01:33:29.071Z,6.22
2022-10-01T01:36:04.481Z,6.07
2022-10-01T01:38:38.792Z,6.28
2022-10-01T01:41:08.442Z,6.18
2022-10-01T01:43:40.666Z,6.32
2022-10-01T01:46:10.543Z,5.10
2022-10-01T01:48:39.803Z,6.03
2022-10-01T01:51:15.664Z,6.20
2022-10-01T01:53:43.185Z,5.63
2022-10-01T01:56:10.645Z,6.45
2022-10-01T01:58:39.144Z,5.15
2022-10-01T02:01:06.719Z,6.13
2022-10-01T02:03:35.231Z,6.03
2022-10-01T02:06:27.999Z,5.30
2022-10-01T02:09:08.687Z,4.82
2022-10-01T02:11:43.590Z,4.70
2022-10-01T02:14:40.433Z,5.00
2022-10-01T02:17:24.905Z,4.55
2022-10-01T02:19:59.658Z,4.28
2022-10-01T02:22:42.453Z,4.45
2022-10-01T02:25:13.661Z,5.03
2022-10-01T02:27:47.016Z,4.68
2022-10-01T02:30:16.589Z,4.15
2022-10-01T02:32:46.664Z,4.65
2022-10-01T02:35:17.065Z,4.03
2022-10-01T02:37:47.095Z,3.83
2022-10-01T02:40:18.087Z,3.20
2022-10-01T02:43:08.521Z,3.88
2022-10-01T02:45:38.387Z,3.35
2022-10-01T02:48:09.879Z,3.38
2022-10-01T02:50:50.009Z,2.83
2022-10-01T02:53:22.025Z,2.40
2022-10-01T02:55:50.953Z,2.35
2022-10-01T02:58:19.111Z,1.73
2022-10-01T03:00:46.914Z,2.28
2022-10-01T03:03:13.939Z,2.13
2022-10-01T03:05:41.323Z,2.40
2022-10-01T03:08:08.362Z,2.33
2022-10-01T03:10:35.350Z,1.85
2022-10-01T03:13:02.355Z,1.92
2022-10-01T03:15:29.395Z,2.58
2022-10-01T03:17:56.454Z,2.05
2022-10-01T03:20:24.031Z,2.60
2022-10-01T03:22:51.130Z,2.22
2022-10-01T03:25:18.314Z,2.67
2022-10-01T03:27:47.013Z,2.65
2022-10-01T03:30:14.056Z,2.90
2022-10-01T03:32:41.027Z,2.63
2022-10-01T03:35:08.380Z,2.97
2022-10-01T03:37:35.538Z,2.92
2022-10-01T03:40:02.629Z,2.60
2022-10-01T03:42:29.613Z,2.90
2022-10-01T03:44:56.623Z,3.00
2022-10-01T03:47:24.305Z,2.80
2022-10-01T03:49:53.846Z,3.53
2022-10-01T03:52:21.041Z,3.50
2022-10-01T03:54:48.172Z,4.13
2022-10-01T03:57:15.828Z,4.25
2022-10-01T03:59:42.826Z,4.00
2022-10-01T04:02:10.066Z,4.38
2022-10-01T04:04:37.258Z,4.00
2022-10-01T04:07:04.261Z,4.43
2022-10-01T04:09:31.330Z,4.70
2022-10-01T04:11:59.163Z,4.20
2022-10-01T04:14:26.207Z,4.55
2022-10-01T04:16:53.212Z,5.35
2022-10-01T04:19:20.971Z,4.53
2022-10-01T04:21:48.025Z,5.50
2022-10-01T04:24:15.686Z,4.75
2022-10-01T04:26:42.646Z,5.75
2022-10-01T04:29:09.681Z,5.53
2022-10-01T04:31:37.585Z,6.35
2022-10-01T04:34:04.973Z,5.95
2022-10-01T04:36:31.981Z,6.18
2022-10-01T04:39:02.215Z,6.30
2022-10-01T04:41:33.150Z,7.32
2022-10-01T04:44:00.786Z,7.05
2022-10-01T04:46:29.800Z,7.40
2022-10-01T04:48:57.057Z,7.63
2022-10-01T04:51:24.559Z,7.88
2022-10-01T04:53:52.210Z,7.50
2022-10-01T04:56:19.234Z,8.85
2022-10-01T04:58:48.181Z,8.18
2022-10-01T05:01:15.777Z,7.95
2022-10-01T05:03:42.871Z,7.82
2022-10-01T05:06:09.856Z,8.48
2022-10-01T05:08:37.970Z,8.65
2022-10-01T05:11:05.354Z,8.15
2022-10-01T05:13:32.566Z,8.45
2022-10-01T05:15:59.661Z,8.32
2022-10-01T05:18:26.705Z,8.38
2022-10-01T05:20:53.685Z,8.38
2022-10-01T05:23:21.073Z,8.35
2022-10-01T05:25:48.055Z,8.35
2022-10-01T05:28:21.277Z,9.07
2022-10-01T05:30:51.288Z,8.93
2022-10-01T05:33:18.397Z,9.02
2022-10-01T05:35:46.889Z,9.43
2022-10-01T05:38:13.893Z,9.93
2022-10-01T05:40:47.415Z,9.88
2022-10-01T05:43:15.852Z,9.00
2022-10-01T05:45:43.083Z,8.70
2022-10-01T05:48:10.836Z,9.95
2022-10-01T05:50:41.095Z,9.10
2022-10-01T05:53:09.753Z,9.15
2022-10-01T05:55:40.228Z,9.30
2022-10-01T05:58:10.380Z,9.68
2022-10-01T06:00:39.286Z,9.05
2022-10-01T06:03:07.707Z,9.27
2022-10-01T06:05:36.113Z,9.57
2022-10-01T06:08:06.691Z,9.98
2022-10-01T06:10:33.733Z,9.73
2022-10-01T06:13:07.338Z,9.27
2022-10-01T06:15:39.881Z,10.05
2022-10-01T06:18:09.289Z,10.48
2022-10-01T06:20:37.005Z,9.73
2022-10-01T06:23:11.250Z,9.90
2022-10-01T06:25:40.182Z,9.90
2022-10-01T06:28:09.082Z,10.45
2022-10-01T06:30:38.160Z,9.88
2022-10-01T06:33:08.359Z,9.73
2022-10-01T06:35:39.990Z,9.20
2022-10-01T06:38:07.978Z,10.48
2022-10-01T06:40:35.692Z,9.77
2022-10-01T06:43:03.732Z,9.93
2022-10-01T06:45:31.468Z,9.20
2022-10-01T06:48:02.576Z,9.80
2022-10-01T06:50:34.380Z,9.85
2022-10-01T06:53:02.018Z,10.10
2022-10-01T06:55:32.503Z,10.70
2022-10-01T06:58:26.698Z,10.73
2022-10-01T07:01:00.118Z,10.70
2022-10-01T07:03:27.728Z,9.73
2022-10-01T07:06:00.812Z,10.32
2022-10-01T07:08:27.877Z,11.20
2022-10-01T07:11:00.434Z,10.18
2022-10-01T07:13:27.504Z,10.38
2022-10-01T07:15:54.521Z,10.85
2022-10-01T07:18:22.103Z,10.23
2022-10-01T07:20:49.131Z,10.35
2022-10-01T07:23:16.499Z,10.00
2022-10-01T07:25:45.287Z,9.05
2022-10-01T07:28:17.884Z,8.70
2022-10-01T07:30:47.760Z,8.32
2022-10-01T07:33:18.539Z,9.18
2022-10-01T07:35:47.719Z,8.07
2022-10-01T07:38:15.242Z,7.40
2022-10-01T07:40:42.305Z,5.88
2022-10-01T07:43:09.750Z,5.35
2022-10-01T07:45:36.867Z,4.43
2022-10-01T07:48:04.302Z,5.18
2022-10-01T07:50:31.352Z,5.72
2022-10-01T07:52:59.637Z,5.47
2022-10-01T07:55:28.494Z,5.18
2022-10-01T07:57:57.482Z,5.55
2022-10-01T08:00:27.998Z,5.53
2022-10-01T08:02:56.261Z,5.70
2022-10-01T08:05:29.014Z,6.05
2022-10-01T08:08:04.866Z,6.95
2022-10-01T08:10:34.771Z,6.95
2022-10-01T08:13:14.860Z,8.32
2022-10-01T08:15:44.111Z,7.72
2022-10-01T08:18:12.014Z,7.20
2022-10-01T08:20:39.645Z,6.75
2022-10-01T08:23:11.729Z,7.72
2022-10-01T08:25:39.763Z,6.50
2022-10-01T08:28:08.224Z,5.72
2022-10-01T08:30:38.376Z,5.22
2022-10-01T08:33:06.552Z,5.35
2022-10-01T08:35:33.894Z,6.13
2022-10-01T08:38:06.796Z,6.13
2022-10-01T08:40:38.192Z,6.30
2022-10-01T08:43:07.487Z,5.05
2022-10-01T08:45:40.555Z,4.47
2022-10-01T08:48:16.667Z,4.32
2022-10-01T08:50:57.473Z,4.70
2022-10-01T08:53:47.186Z,4.53
2022-10-01T08:56:30.621Z,4.05
2022-10-01T08:59:00.302Z,4.20
2022-10-01T09:01:28.431Z,4.57
2022-10-01T09:03:56.278Z,3.78
2022-10-01T09:06:25.890Z,3.67
2022-10-01T09:09:22.500Z,3.13
2022-10-01T09:12:08.204Z,2.60
2022-10-01T09:14:57.048Z,3.22
2022-10-01T09:17:53.168Z,3.35
2022-10-01T09:20:28.380Z,3.25
2022-10-01T09:23:06.914Z,2.70
2022-10-01T09:25:38.086Z,2.95
2022-10-01T09:28:32.699Z,3.35
2022-10-01T09:31:08.938Z,2.55
2022-10-01T09:33:43.465Z,3.25
2022-10-01T09:36:26.026Z,3.60
2022-10-01T09:39:10.331Z,2.50
2022-10-01T09:41:37.570Z,3.10
2022-10-01T09:44:06.156Z,2.58
2022-10-01T09:46:33.661Z,2.38
2022-10-01T09:49:09.584Z,2.03
2022-10-01T09:51:45.643Z,2.60
2022-10-01T09:54:36.672Z,2.45
2022-10-01T09:57:13.027Z,2.25
2022-10-01T09:59:57.140Z,2.83
2022-10-01T10:05:20.009Z,2.55
2022-10-01T10:07:57.147Z,1.52
2022-10-01T10:10:36.880Z,2.67
2022-10-01T10:13:10.830Z,2.45
2022-10-01T10:15:42.522Z,2.20
2022-10-01T10:18:22.980Z,2.50
2022-10-01T10:20:53.918Z,2.42
2022-10-01T10:23:26.492Z,1.50
2022-10-01T10:26:02.825Z,1.67
2022-10-01T10:28:46.236Z,2.72
2022-10-01T10:31:18.868Z,1.75
2022-10-01T10:33:51.195Z,1.65
2022-10-01T10:36:19.697Z,2.10
2022-10-01T10:38:53.588Z,2.25
2022-10-01T10:41:26.356Z,1.75
2022-10-01T10:44:00.575Z,2.20
2022-10-01T10:46:36.872Z,1.60
2022-10-01T10:49:31.473Z,1.67
2022-10-01T10:52:01.022Z,2.22
2022-10-01T10:54:35.240Z,1.73
2022-10-01T10:57:16.486Z,2.10
2022-10-01T10:59:56.152Z,2.13
2022-10-01T11:02:25.456Z,2.85
2022-10-01T11:04:54.789Z,1.55
2022-10-01T11:07:24.439Z,1.65
2022-10-01T11:10:12.387Z,1.88
2022-10-01T11:12:58.341Z,1.50
2022-10-01T11:15:49.875Z,2.20
2022-10-01T11:18:40.226Z,1.88
2022-10-01T11:21:22.862Z,1.95
2022-10-01T11:23:58.907Z,1.45
2022-10-01T11:26:50.628Z,2.00
2022-10-01T11:31:55.898Z,2.20
2022-10-01T11:35:10.061Z,1.60
2022-10-01T11:37:37.312Z,1.55
2022-10-01T11:40:27.117Z,2.20
2022-10-01T11:43:01.945Z,1.55
2022-10-01T11:45:36.476Z,1.48
2022-10-01T11:48:39.234Z,2.25
2022-10-01T11:51:22.763Z,2.00
2022-10-01T11:53:58.980Z,2.08
2022-10-01T11:56:52.140Z,1.58
2022-10-01T11:59:41.328Z,1.58
2022-10-01T12:02:32.950Z,1.80
2022-10-01T12:05:10.360Z,1.38
2022-10-01T12:07:43.711Z,1.63
2022-10-01T12:10:17.222Z,1.80
2022-10-01T12:12:58.082Z,2.03
2022-10-01T12:15:53.773Z,1.10
2022-10-01T12:18:32.098Z,1.33
2022-10-01T12:21:11.832Z,1.77
2022-10-01T12:23:51.217Z,1.90
2022-10-01T12:26:27.275Z,1.50
2022-10-01T12:29:08.181Z,1.95
2022-10-01T12:31:43.797Z,2.15
2022-10-01T12:34:28.829Z,2.13
2022-10-01T12:37:28.748Z,2.08
2022-10-01T12:40:27.961Z,1.98
2022-10-01T12:43:27.638Z,1.92
2022-10-01T12:46:16.241Z,1.38
2022-10-01T12:49:15.865Z,1.67
2022-10-01T12:51:47.034Z,1.92
2022-10-01T12:54:32.581Z,2.03
2022-10-01T12:57:28.903Z,2.13
2022-10-01T13:00:24.927Z,1.92
2022-10-01T13:03:10.479Z,2.25
2022-10-01T13:06:05.642Z,2.05
2022-10-01T13:08:35.264Z,2.05
2022-10-01T13:11:13.960Z,2.05
2022-10-01T13:13:41.558Z,1.92
2022-10-01T13:16:27.372Z,1.52
2022-10-01T13:18:57.034Z,1.83
2022-10-01T13:21:45.070Z,1.42
2022-10-01T13:24:23.995Z,1.33
2022-10-01T13:26:54.060Z,3.00
2022-10-01T13:29:28.605Z,1.60
2022-10-01T13:31:58.812Z,1.73
2022-10-01T13:34:41.194Z,1.42
2022-10-01T13:37:15.787Z,1.95
2022-10-01T13:39:44.894Z,1.88
2022-10-01T13:42:20.408Z,2.13
2022-10-01T13:44:53.997Z,1.52
2022-10-01T13:47:22.897Z,2.00
2022-10-01T13:50:18.492Z,1.70
2022-10-01T13:52:46.051Z,1.63
2022-10-01T13:55:28.040Z,2.20
2022-10-01T13:58:06.898Z,1.83
2022-10-01T14:00:34.071Z,1.88
2022-10-01T14:03:05.928Z,2.30
2022-10-01T14:05:38.095Z,2.28
2022-10-01T14:08:25.871Z,1.80
2022-10-01T14:11:30.195Z,1.73
2022-10-01T14:14:27.236Z,1.88
2022-10-01T14:16:56.276Z,2.20
2022-10-01T14:19:25.876Z,2.00
2022-10-01T14:22:18.383Z,2.33
2022-10-01T14:24:45.960Z,1.33
2022-10-01T14:27:19.117Z,1.42
2022-10-01T14:30:13.244Z,2.05
2022-10-01T14:32:43.009Z,1.50
2022-10-01T14:35:38.263Z,2.65
2022-10-01T14:38:13.317Z,1.92
2022-10-01T14:40:43.247Z,2.80
2022-10-01T14:43:16.115Z,1.92
2022-10-01T14:46:17.064Z,1.93
2022-10-01T14:48:45.115Z,1.98
2022-10-01T14:51:29.835Z,2.28
2022-10-01T14:54:00.143Z,3.00
2022-10-01T14:56:28.478Z,2.33
2022-10-01T14:59:03.266Z,1.63
2022-10-01T15:01:30.369Z,2.55
2022-10-01T15:03:57.837Z,2.35
2022-10-01T15:06:30.374Z,1.75
2022-10-01T15:09:11.755Z,2.47
2022-10-01T15:11:44.294Z,2.20
2022-10-01T15:14:19.052Z,2.85
2022-10-01T15:16:46.575Z,2.30
2022-10-01T15:19:16.987Z,2.17
2022-10-01T15:21:56.655Z,2.25
2022-10-01T15:24:36.193Z,3.03
2022-10-01T15:27:03.817Z,1.65
2022-10-01T15:29:31.260Z,2.30
2022-10-01T15:31:58.922Z,1.35
2022-10-01T15:34:27.501Z,1.60
2022-10-01T15:36:55.352Z,1.70
2022-10-01T15:39:33.075Z,2.10
2022-10-01T15:42:08.706Z,1.95
2022-10-01T15:44:42.749Z,1.27
2022-10-01T15:47:26.655Z,2.30
2022-10-01T15:50:11.012Z,1.70
2022-10-01T15:52:50.552Z,2.05
2022-10-01T15:55:17.661Z,2.03
2022-10-01T15:57:45.256Z,1.92
2022-10-01T16:00:32.469Z,1.90
2022-10-01T16:03:00.379Z,1.58
2022-10-01T16:05:46.399Z,1.73
2022-10-01T16:08:21.527Z,2.47
2022-10-01T16:11:08.934Z,2.00
2022-10-01T16:13:47.474Z,1.98
2022-10-01T16:16:15.303Z,2.17
2022-10-01T16:18:42.584Z,2.15
2022-10-01T16:21:11.267Z,2.28
2022-10-01T16:23:43.501Z,2.47
2022-10-01T16:26:25.460Z,1.88
2022-10-01T16:29:07.385Z,2.75
2022-10-01T16:31:35.777Z,2.63
2022-10-01T16:34:02.801Z,3.08
2022-10-01T16:36:33.430Z,3.00
2022-10-01T16:39:00.576Z,2.60
2022-10-01T16:41:28.801Z,4.13
2022-10-01T16:43:57.322Z,4.40
2022-10-01T16:46:24.468Z,3.55
2022-10-01T16:48:52.688Z,3.13
2022-10-01T16:51:20.464Z,3.00
2022-10-01T16:53:48.990Z,3.67
2022-10-01T16:56:16.252Z,2.65
2022-10-01T16:58:44.181Z,2.05
2022-10-01T17:01:14.100Z,2.53
2022-10-01T17:03:41.701Z,2.88
2022-10-01T17:08:44.892Z,2.53
2022-10-01T17:11:12.743Z,3.05
2022-10-01T17:13:39.946Z,2.28
2022-10-01T17:16:07.958Z,2.97
2022-10-01T17:18:35.060Z,22.02
2022-10-01T17:21:04.264Z,4.63
2022-10-01T17:23:31.292Z,2.33
2022-10-01T17:25:58.309Z,3.30
2022-10-01T17:28:25.456Z,2.50
2022-10-01T17:30:52.746Z,2.38
2022-10-01T17:33:20.153Z,1.33
2022-10-01T17:35:54.678Z,2.47
2022-10-01T17:38:22.920Z,2.47
2022-10-01T17:40:55.657Z,2.50
2022-10-01T17:45:56.840Z,3.70
2022-10-01T17:48:25.140Z,3.55
2022-10-01T17:51:06.931Z,3.33
2022-10-01T17:53:41.902Z,4.00
2022-10-01T17:56:15.848Z,4.93
2022-10-01T17:58:45.519Z,5.20
2022-10-01T18:01:16.363Z,5.47
2022-10-01T18:03:43.679Z,6.78
2022-10-01T18:06:15.949Z,5.60
2022-10-01T18:08:58.434Z,5.43
2022-10-01T18:11:28.016Z,5.30
2022-10-01T18:13:55.178Z,6.20
2022-10-01T18:16:26.549Z,5.95
2022-10-01T18:21:48.882Z,3.55
2022-10-01T18:24:16.768Z,5.63
2022-10-01T18:26:45.581Z,5.32
2022-10-01T18:29:22.417Z,4.40
2022-10-01T18:31:56.060Z,3.65
2022-10-01T18:34:29.094Z,3.25
2022-10-01T18:37:06.155Z,3.50
2022-10-01T18:39:37.029Z,3.60
2022-10-01T18:42:14.985Z,4.32
2022-10-01T18:44:42.167Z,3.42
2022-10-01T18:47:22.310Z,4.78
2022-10-01T18:50:22.741Z,8.65
2022-10-01T18:53:11.922Z,6.60
2022-10-01T18:56:11.116Z,4.60
2022-10-01T18:59:19.335Z,4.28
2022-10-01T19:01:55.173Z,3.47
2022-10-01T19:05:04.041Z,4.43
2022-10-01T19:07:53.660Z,3.03
2022-10-01T19:10:42.115Z,3.60
2022-10-01T19:13:37.250Z,4.43
2022-10-01T19:16:47.873Z,3.58
2022-10-01T19:19:17.448Z,4.95
2022-10-01T19:22:10.733Z,4.78
2022-10-01T19:24:54.274Z,3.83
2022-10-01T19:27:51.614Z,5.47
2022-10-01T19:30:19.768Z,4.45
2022-10-01T19:32:59.714Z,3.40
2022-10-01T19:35:51.590Z,5.35
2022-10-01T19:38:33.708Z,5.68
2022-10-01T19:41:23.296Z,7.20
2022-10-01T19:44:07.364Z,4.65
2022-10-01T19:46:37.686Z,6.45
2022-10-01T19:49:15.862Z,6.05
2022-10-01T19:51:53.262Z,7.88
2022-10-01T19:54:25.352Z,7.57
2022-10-01T19:56:57.284Z,5.32
2022-10-01T19:59:24.339Z,9.32
2022-10-01T20:02:14.965Z,5.50
2022-10-01T20:04:54.901Z,4.68
2022-10-01T20:07:29.043Z,5.55
2022-10-01T20:10:22.981Z,6.75
2022-10-01T20:13:12.155Z,4.60
2022-10-01T20:16:09.586Z,6.53
2022-10-01T20:19:04.838Z,5.18
2022-10-01T20:22:06.651Z,4.22
2022-10-01T20:24:58.926Z,4.30
2022-10-01T20:28:07.465Z,3.15
2022-10-01T20:30:48.700Z,3.70
2022-10-01T20:33:36.964Z,4.82
2022-10-01T20:36:10.054Z,3.97
2022-10-01T20:38:43.681Z,4.32
2022-10-01T20:41:15.639Z,4.20
2022-10-01T20:43:51.091Z,3.78
2022-10-01T20:46:33.546Z,3.38
2022-10-01T20:49:11.274Z,4.28
2022-10-01T20:51:59.012Z,3.90
2022-10-01T20:54:53.027Z,3.97
2022-10-01T20:57:31.181Z,3.65
2022-10-01T21:00:07.295Z,2.88
2022-10-01T21:02:48.835Z,3.83
2022-10-01T21:05:22.549Z,3.83
2022-10-01T21:08:01.120Z,4.20
2022-10-01T21:10:43.121Z,5.13
2022-10-01T21:13:24.199Z,3.92
2022-10-01T21:16:05.363Z,4.38
2022-10-01T21:18:47.628Z,4.82
2022-10-01T21:21:32.979Z,6.10
2022-10-01T21:24:11.957Z,9.43
2022-10-01T21:27:14.399Z,4.40
2022-10-01T21:29:56.816Z,9.32
2022-10-01T21:32:37.149Z,3.65
2022-10-01T21:35:09.864Z,5.97
2022-10-01T21:37:41.711Z,4.53
2022-10-01T21:40:37.031Z,3.92
2022-10-01T21:43:10.116Z,4.43
2022-10-01T21:45:41.889Z,4.05
2022-10-01T21:48:34.466Z,4.88
2022-10-01T21:51:13.466Z,4.15
2022-10-01T21:53:46.652Z,3.80
2022-10-01T21:56:16.309Z,3.38
2022-10-01T21:59:14.292Z,3.85
2022-10-01T22:02:18.210Z,3.70
2022-10-01T22:04:49.373Z,3.90
2022-10-01T22:07:23.776Z,3.47
2022-10-01T22:10:07.946Z,5.13
2022-10-01T22:15:35.518Z,3.70
2022-10-01T22:18:05.518Z,4.28
2022-10-01T22:20:37.239Z,5.22
2022-10-01T22:23:10.132Z,4.00
2022-10-01T22:25:45.200Z,5.23
2022-10-01T22:28:19.760Z,5.70
2022-10-01T22:30:51.413Z,5.05
2022-10-01T22:33:27.830Z,5.22
2022-10-01T22:36:41.557Z,5.22
2022-10-01T22:39:17.996Z,4.90
2022-10-01T22:41:46.930Z,4.80
2022-10-01T22:44:17.556Z,4.75
2022-10-01T22:47:10.893Z,4.68
2022-10-01T22:50:02.822Z,4.50
2022-10-01T22:52:47.697Z,5.55
2022-10-01T22:55:37.927Z,5.43
2022-10-01T22:58:26.272Z,5.82
2022-10-01T23:01:02.722Z,5.25
2022-10-01T23:03:44.843Z,4.38
2022-10-01T23:06:33.358Z,4.30
2022-10-01T23:09:19.720Z,4.18
2022-10-01T23:12:05.710Z,3.33
2022-10-01T23:14:56.083Z,3.22
2022-10-01T23:17:33.508Z,4.03
2022-10-01T23:20:08.485Z,2.38
2022-10-01T23:23:12.244Z,4.18
2022-10-01T23:26:14.622Z,4.70
2022-10-01T23:29:00.217Z,4.07
2022-10-01T23:31:37.062Z,3.97
2022-10-01T23:34:55.244Z,3.83
2022-10-01T23:37:34.133Z,4.13
2022-10-01T23:40:07.615Z,3.47
2022-10-01T23:42:58.709Z,2.88
2022-10-01T23:45:34.346Z,4.05
2022-10-01T23:48:30.846Z,3.88
2022-10-01T23:51:02.917Z,3.03
2022-10-01T23:53:47.757Z,3.15
2022-10-01T23:56:53.277Z,3.05
2022-10-01T23:59:23.660Z,2.63
